Time;durP1;ratioP1;P1;durP2;ratioP2;P2;SDS_P1;SDS_P2;PMS_P1;PMS_P2;Temp;Humidity;BMP_temperature;BMP_pressure;BME280_temperature;BME280_humidity;BME280_pressure;Samples;Min_cycle;Max_cycle;Signal;HPM_P1;HPM_P2
2023/10/30 00:00:39;;;;;;;17.10;11.30;;;;;;;8.01;100.00;101427.53;105402;1257;59688;-76
2023/10/30 00:03:09;;;;;;;15.90;11.60;;;;;;;8.02;100.00;101432.72;105539;1259;60142;-75
2023/10/30 00:05:37;;;;;;;21.00;11.70;;;;;;;8.03;100.00;101439.48;105928;1251;71900;-76
2023/10/30 00:08:06;;;;;;;16.60;11.60;;;;;;;8.03;100.00;101445.41;105974;1250;63626;-73
2023/10/30 00:10:34;;;;;;;16.20;11.80;;;;;;;8.02;100.00;101446.45;105873;1251;71435;-75
2023/10/30 00:13:01;;;;;;;20.70;12.70;;;;;;;8.02;100.00;101434.99;105974;1256;61005;-76
2023/10/30 00:15:29;;;;;;;15.20;11.70;;;;;;;8.02;100.00;101438.28;105824;1256;59647;-75
2023/10/30 00:17:56;;;;;;;14.40;11.40;;;;;;;8.03;100.00;101437.23;105878;1250;73997;-79
2023/10/30 00:20:25;;;;;;;16.90;11.10;;;;;;;8.04;100.00;101437.69;105826;1256;63642;-76
2023/10/30 00:22:52;;;;;;;17.70;12.00;;;;;;;8.06;100.00;101433.80;105846;1251;71625;-75
2023/10/30 00:25:21;;;;;;;17.40;12.50;;;;;;;8.07;100.00;101432.19;105926;1256;61458;-75
2023/10/30 00:27:48;;;;;;;20.30;12.60;;;;;;;8.07;100.00;101434.80;105815;1251;60365;-74
2023/10/30 00:30:16;;;;;;;18.60;12.20;;;;;;;8.08;100.00;101434.56;105774;1256;73712;-76
2023/10/30 00:32:45;;;;;;;16.70;11.90;;;;;;;8.10;100.00;101437.66;105822;1251;62376;-75
2023/10/30 00:35:13;;;;;;;18.30;12.90;;;;;;;8.10;100.00;101441.65;105979;1251;71397;-77
2023/10/30 00:37:41;;;;;;;16.90;11.80;;;;;;;8.09;100.00;101441.15;105885;1256;60127;-76
2023/10/30 00:40:10;;;;;;;19.90;13.40;;;;;;;8.09;100.00;101445.16;105884;1256;59707;-74
2023/10/30 00:42:38;;;;;;;20.20;14.10;;;;;;;8.08;100.00;101442.42;105868;1256;73592;-75
2023/10/30 00:45:08;;;;;;;33.70;20.50;;;;;;;8.06;100.00;101441.08;105906;1251;62414;-77
2023/10/30 00:47:38;;;;;;;50.90;24.80;;;;;;;8.06;100.00;101440.04;105836;1254;71264;-74
2023/10/30 00:50:07;;;;;;;52.50;26.70;;;;;;;8.08;100.00;101444.85;105851;1257;59721;-75
2023/10/30 00:52:35;;;;;;;52.50;27.80;;;;;;;8.12;100.00;101445.08;105999;1251;60728;-77
2023/10/30 00:55:02;;;;;;;57.70;30.40;;;;;;;8.16;100.00;101438.48;105818;1256;73075;-75
2023/10/30 00:57:30;;;;;;;58.30;31.00;;;;;;;8.19;100.00;101438.36;105870;1250;63745;-78
2023/10/30 00:59:59;;;;;;;61.20;32.30;;;;;;;8.24;100.00;101436.44;105804;1256;71413;-76
2023/10/30 01:02:26;;;;;;;55.10;30.50;;;;;;;8.29;100.00;101437.98;105652;1257;59984;-75
2023/10/30 01:04:54;;;;;;;56.70;29.60;;;;;;;8.35;100.00;101431.34;105763;1257;59618;-73
2023/10/30 01:07:23;;;;;;;58.50;29.70;;;;;;;8.40;100.00;101424.02;106007;1256;75277;-75
2023/10/30 01:09:50;;;;;;;49.80;26.20;;;;;;;8.45;100.00;101428.70;105864;1251;62560;-78
2023/10/30 01:12:18;;;;;;;48.80;23.70;;;;;;;8.51;100.00;101419.96;106036;1251;72779;-73
2023/10/30 01:14:46;;;;;;;42.00;21.30;;;;;;;8.55;100.00;101416.64;105697;1256;59768;-74
2023/10/30 01:17:13;;;;;;;36.70;23.30;;;;;;;8.61;100.00;101416.95;105887;1250;59990;-76
2023/10/30 01:19:43;;;;;;;43.20;25.00;;;;;;;8.67;100.00;101414.98;106014;1250;71646;-76
2023/10/30 01:22:10;;;;;;;49.10;24.20;;;;;;;8.70;100.00;101423.39;105713;1251;63607;-77
2023/10/30 01:24:38;;;;;;;42.10;23.30;;;;;;;8.73;100.00;101423.47;105860;1254;72112;-76
2023/10/30 01:27:07;;;;;;;42.40;24.10;;;;;;;8.74;100.00;101419.60;105883;1251;60925;-77
2023/10/30 01:29:35;;;;;;;42.40;22.70;;;;;;;8.73;100.00;101417.52;105848;1253;60050;-77
2023/10/30 01:32:03;;;;;;;43.50;25.20;;;;;;;8.73;100.00;101420.33;105843;1251;71821;-76
2023/10/30 01:34:30;;;;;;;46.20;24.00;;;;;;;8.72;100.00;101421.04;105834;1251;61914;-77
2023/10/30 01:36:58;;;;;;;45.20;23.50;;;;;;;8.73;100.00;101422.44;105805;1251;71810;-76
2023/10/30 01:39:25;;;;;;;46.80;22.10;;;;;;;8.72;100.00;101419.13;105866;1256;61591;-75
2023/10/30 01:41:53;;;;;;;42.40;23.20;;;;;;;8.71;100.00;101416.55;105817;1251;60697;-74
2023/10/30 01:44:21;;;;;;;42.50;23.30;;;;;;;8.70;100.00;101417.62;105848;1250;70566;-74
2023/10/30 01:46:49;;;;;;;36.70;19.80;;;;;;;8.70;100.00;101417.45;105853;1256;66623;-76
2023/10/30 01:49:16;;;;;;;44.00;22.60;;;;;;;8.72;100.00;101415.84;105886;1256;71453;-75
2023/10/30 01:51:44;;;;;;;41.40;22.30;;;;;;;8.76;100.00;101407.65;105713;1257;59800;-77
2023/10/30 01:54:12;;;;;;;43.40;22.30;;;;;;;8.79;100.00;101396.73;105732;1257;59623;-75
2023/10/30 01:56:39;;;;;;;42.30;22.80;;;;;;;8.81;100.00;101398.91;105739;1250;71862;-75
2023/10/30 01:59:07;;;;;;;45.30;22.10;;;;;;;8.82;100.00;101401.30;105684;1251;62897;-76
2023/10/30 02:01:34;;;;;;;37.40;22.10;;;;;;;8.83;100.00;101403.55;105857;1257;71370;-73
2023/10/30 02:04:02;;;;;;;44.30;23.50;;;;;;;8.85;100.00;101403.11;105728;1250;61751;-75
2023/10/30 02:06:29;;;;;;;40.20;22.10;;;;;;;8.87;100.00;101406.33;105844;1253;59567;-74
2023/10/30 02:08:57;;;;;;;48.70;24.20;;;;;;;8.88;100.00;101402.44;105872;1256;70833;-75
2023/10/30 02:11:24;;;;;;;37.80;21.40;;;;;;;8.89;100.00;101410.98;105983;1251;63185;-72
2023/10/30 02:13:56;;;;;;;41.00;23.10;;;;;;;8.88;100.00;101416.91;106076;1256;72670;-73
2023/10/30 02:16:23;;;;;;;43.80;21.00;;;;;;;8.88;100.00;101417.27;105750;1257;60401;-74
2023/10/30 02:18:51;;;;;;;35.00;19.10;;;;;;;8.87;100.00;101417.30;105870;1255;59591;-75
2023/10/30 02:21:18;;;;;;;36.90;21.40;;;;;;;8.86;100.00;101411.58;105902;1256;73263;-75
2023/10/30 02:23:46;;;;;;;44.20;20.00;;;;;;;8.87;100.00;101411.21;105874;1256;63932;-73
2023/10/30 02:26:15;;;;;;;38.60;20.40;;;;;;;8.87;100.00;101410.34;105807;1253;71462;-75
2023/10/30 02:28:43;;;;;;;43.10;22.50;;;;;;;8.87;100.00;101416.80;106015;1256;61866;-74
2023/10/30 02:31:10;;;;;;;40.20;22.80;;;;;;;8.86;100.00;101419.10;105911;1253;59561;-75
2023/10/30 02:33:38;;;;;;;35.40;21.90;;;;;;;8.85;100.00;101421.77;105875;1250;72115;-75
2023/10/30 02:36:06;;;;;;;45.00;21.20;;;;;;;8.83;100.00;101431.23;105830;1250;62836;-75
2023/10/30 02:38:34;;;;;;;39.70;20.20;;;;;;;8.83;100.00;101438.24;105897;1256;72745;-75
2023/10/30 02:41:01;;;;;;;31.00;18.50;;;;;;;8.81;100.00;101440.94;105844;1256;61630;-74
2023/10/30 02:43:30;;;;;;;29.70;18.10;;;;;;;8.80;100.00;101441.84;105921;1250;60412;-75
2023/10/30 02:45:59;;;;;;;26.20;16.20;;;;;;;8.81;100.00;101448.59;105893;1250;72581;-77
2023/10/30 02:48:29;;;;;;;27.30;16.30;;;;;;;8.82;100.00;101448.39;105903;1251;62317;-76
2023/10/30 02:50:58;;;;;;;24.80;15.90;;;;;;;8.83;100.00;101453.23;105888;1253;74921;-76
2023/10/30 02:53:25;;;;;;;23.40;15.80;;;;;;;8.84;100.00;101452.48;105665;1257;61419;-74
2023/10/30 02:55:53;;;;;;;30.20;16.50;;;;;;;8.85;100.00;101454.04;105867;1250;60581;-73
2023/10/30 02:58:20;;;;;;;28.80;16.70;;;;;;;8.87;100.00;101448.02;105850;1250;72652;-74
2023/10/30 03:00:48;;;;;;;29.00;16.40;;;;;;;8.87;100.00;101438.77;105865;1253;63525;-75
2023/10/30 03:03:15;;;;;;;28.10;17.20;;;;;;;8.87;100.00;101438.39;105824;1251;74659;-73
2023/10/30 03:05:45;;;;;;;23.10;16.60;;;;;;;8.86;100.00;101441.23;105905;1256;60538;-73
2023/10/30 03:08:12;;;;;;;25.20;16.70;;;;;;;8.85;100.00;101445.46;105875;1250;60466;-73
2023/10/30 03:10:39;;;;;;;30.20;16.30;;;;;;;8.83;100.00;101442.05;105864;1250;72656;-75
2023/10/30 03:13:07;;;;;;;28.10;15.70;;;;;;;8.82;100.00;101447.14;105915;1256;63595;-75
2023/10/30 03:15:35;;;;;;;29.30;15.70;;;;;;;8.81;100.00;101447.57;105859;1251;72926;-78
2023/10/30 03:18:02;;;;;;;26.10;16.20;;;;;;;8.78;100.00;101449.77;105820;1250;60928;-76
2023/10/30 03:20:30;;;;;;;23.50;16.20;;;;;;;8.77;100.00;101447.20;105814;1250;60489;-74
2023/10/30 03:22:58;;;;;;;28.40;16.00;;;;;;;8.73;100.00;101446.30;105888;1250;73330;-74
2023/10/30 03:25:25;;;;;;;28.30;16.60;;;;;;;8.70;100.00;101446.05;105884;1250;63735;-75
2023/10/30 03:27:53;;;;;;;28.70;17.00;;;;;;;8.66;100.00;101442.54;105952;1252;72769;-76
2023/10/30 03:30:21;;;;;;;23.70;15.90;;;;;;;8.63;100.00;101438.67;105835;1254;61196;-77
2023/10/30 03:32:49;;;;;;;24.30;16.30;;;;;;;8.59;100.00;101441.27;105853;1250;61130;-75
2023/10/30 03:35:16;;;;;;;26.90;16.50;;;;;;;8.56;100.00;101436.84;105764;1250;73965;-78
2023/10/30 03:37:43;;;;;;;28.80;16.00;;;;;;;8.53;100.00;101433.30;105961;1251;62310;-78
2023/10/30 03:40:11;;;;;;;22.10;14.70;;;;;;;8.51;100.00;101430.93;105962;1256;71468;-77
2023/10/30 03:42:39;;;;;;;25.00;16.40;;;;;;;8.49;100.00;101425.23;105795;1251;60858;-77
2023/10/30 03:45:08;;;;;;;26.50;15.80;;;;;;;8.49;100.00;101425.41;105787;1256;60419;-75
2023/10/30 03:47:35;;;;;;;26.30;16.90;;;;;;;8.48;100.00;101424.23;105780;1256;73882;-79
2023/10/30 03:50:05;;;;;;;23.60;16.40;;;;;;;8.50;100.00;101423.63;105846;1251;62556;-77
2023/10/30 03:52:33;;;;;;;37.10;17.70;;;;;;;8.56;100.00;101427.27;105930;1251;70523;-75
2023/10/30 03:55:03;;;;;;;23.60;15.70;;;;;;;8.61;100.00;101428.65;105803;1250;60859;-77
2023/10/30 03:57:31;;;;;;;24.50;14.80;;;;;;;8.67;100.00;101428.20;105883;1256;60352;-76
2023/10/30 03:59:59;;;;;;;24.10;14.50;;;;;;;8.74;100.00;101427.92;105740;1250;72838;-76
2023/10/30 04:02:28;;;;;;;21.40;13.90;;;;;;;8.81;100.00;101429.75;105789;1250;62292;-76
2023/10/30 04:04:56;;;;;;;25.10;15.10;;;;;;;8.87;100.00;101436.66;105843;1251;71424;-77
2023/10/30 04:07:26;;;;;;;23.40;15.10;;;;;;;8.91;100.00;101437.73;105852;1251;63525;-75
2023/10/30 04:09:54;;;;;;;36.80;23.10;;;;;;;8.95;100.00;101437.08;105831;1250;60463;-76
2023/10/30 04:12:21;;;;;;;20.20;15.10;;;;;;;9.00;100.00;101439.66;105816;1251;73875;-76
2023/10/30 04:14:51;;;;;;;26.20;14.90;;;;;;;9.03;100.00;101440.03;105983;1250;64597;-77
2023/10/30 04:17:18;;;;;;;22.30;13.70;;;;;;;9.06;100.00;101441.31;105906;1251;72626;-76
2023/10/30 04:19:46;;;;;;;25.10;15.40;;;;;;;9.09;100.00;101441.52;105882;1255;60481;-78
2023/10/30 04:22:14;;;;;;;20.70;13.10;;;;;;;9.11;100.00;101446.36;105961;1253;60391;-77
2023/10/30 04:24:42;;;;;;;25.70;13.30;;;;;;;9.11;100.00;101443.89;105819;1255;73947;-75
2023/10/30 04:27:10;;;;;;;23.80;12.90;;;;;;;9.12;100.00;101445.80;105874;1256;63782;-78
2023/10/30 04:29:38;;;;;;;19.70;13.20;;;;;;;9.12;100.00;101448.04;105956;1252;72621;-74
2023/10/30 04:32:05;;;;;;;20.20;11.50;;;;;;;9.14;100.00;101447.82;105883;1251;63641;-75
2023/10/30 04:34:33;;;;;;;21.00;11.70;;;;;;;9.18;100.00;101447.32;105920;1254;60512;-75
2023/10/30 04:37:00;;;;;;;21.60;11.50;;;;;;;9.25;100.00;101440.02;105953;1251;74012;-76
2023/10/30 04:39:31;;;;;;;23.10;11.50;;;;;;;9.32;100.00;101437.62;105910;1250;62387;-76
2023/10/30 04:41:58;;;;;;;27.10;16.80;;;;;;;9.42;100.00;101442.63;105869;1251;72236;-74
2023/10/30 04:44:26;;;;;;;20.70;12.60;;;;;;;9.50;100.00;101438.29;105897;1251;60742;-77
2023/10/30 04:46:53;;;;;;;17.70;12.00;;;;;;;9.57;100.00;101439.71;105774;1250;60486;-76
2023/10/30 04:49:21;;;;;;;19.70;11.30;;;;;;;9.63;100.00;101434.92;105817;1250;72808;-79
2023/10/30 04:51:48;;;;;;;23.20;14.00;;;;;;;9.68;100.00;101430.88;105902;1251;62394;-76
2023/10/30 04:54:16;;;;;;;22.60;13.40;;;;;;;9.73;100.00;101425.24;105801;1256;71088;-76
2023/10/30 04:56:43;;;;;;;18.80;13.60;;;;;;;9.79;100.00;101428.65;105853;1253;60604;-78
2023/10/30 04:59:11;;;;;;;26.90;15.00;;;;;;;9.85;100.00;101431.37;105929;1255;60745;-77
2023/10/30 05:01:38;;;;;;;21.30;13.10;;;;;;;9.91;100.00;101433.02;106619;1250;72507;-72
2023/10/30 05:04:06;;;;;;;25.20;12.90;;;;;;;9.97;100.00;101432.25;106833;1251;62321;-76
2023/10/30 05:06:34;;;;;;;26.40;14.00;;;;;;;10.01;100.00;101433.10;105949;1250;73396;-77
2023/10/30 05:09:03;;;;;;;22.20;14.40;;;;;;;10.05;100.00;101431.71;105973;1251;60677;-76
2023/10/30 05:11:33;;;;;;;25.90;14.60;;;;;;;10.08;100.00;101437.17;105899;1255;60489;-74
2023/10/30 05:14:01;;;;;;;25.90;14.20;;;;;;;10.10;100.00;101439.17;105833;1251;74064;-78
2023/10/30 05:16:28;;;;;;;23.40;13.40;;;;;;;10.12;100.00;101451.80;105999;1253;64192;-75
2023/10/30 05:18:55;;;;;;;22.70;13.80;;;;;;;10.15;100.00;101455.86;105972;1250;72802;-78
2023/10/30 05:21:25;;;;;;;26.20;14.00;;;;;;;10.19;100.00;101462.70;106038;1250;60432;-79
2023/10/30 05:23:52;;;;;;;28.70;14.50;;;;;;;10.24;100.00;101461.08;105897;1256;60477;-77
2023/10/30 05:26:20;;;;;;;26.10;15.20;;;;;;;10.31;100.00;101456.25;105755;1251;73776;-77
2023/10/30 05:28:47;;;;;;;26.70;14.70;;;;;;;10.40;100.00;101459.88;105953;1256;63718;-75
2023/10/30 05:31:16;;;;;;;25.80;15.10;;;;;;;10.51;100.00;101461.81;105858;1251;72950;-78
2023/10/30 05:33:44;;;;;;;22.50;13.50;;;;;;;10.62;100.00;101463.95;105870;1251;63420;-78
2023/10/30 05:36:12;;;;;;;23.70;13.30;;;;;;;10.68;100.00;101463.30;105894;1255;60354;-76
2023/10/30 05:38:39;;;;;;;25.30;13.60;;;;;;;10.74;100.00;101461.77;105879;1256;73839;-77
2023/10/30 05:41:09;;;;;;;23.00;14.10;;;;;;;10.91;100.00;101460.14;105800;1256;62253;-75
2023/10/30 05:43:36;;;;;;;24.00;14.60;;;;;;;11.15;100.00;101457.92;105914;1250;73565;-76
2023/10/30 05:46:04;;;;;;;29.80;13.60;;;;;;;11.49;100.00;101465.16;105970;1251;60819;-74
2023/10/30 05:48:32;;;;;;;22.50;14.90;;;;;;;11.97;100.00;101466.58;105825;1255;59641;-78
2023/10/30 05:51:02;;;;;;;19.80;13.20;;;;;;;12.55;100.00;101469.45;105922;1256;73845;-75
2023/10/30 05:53:30;;;;;;;17.60;12.00;;;;;;;13.23;100.00;101470.01;105929;1257;62276;-75
2023/10/30 05:55:57;;;;;;;20.10;12.30;;;;;;;13.97;100.00;101476.46;107056;1250;72965;-75
2023/10/30 05:58:25;;;;;;;22.40;15.00;;;;;;;14.67;100.00;101471.23;107447;1250;60514;-74
2023/10/30 06:00:52;;;;;;;18.40;11.10;;;;;;;15.28;100.00;101475.79;106982;1250;60318;-75
2023/10/30 06:03:20;;;;;;;21.10;10.70;;;;;;;15.80;100.00;101474.41;107007;1251;73892;-75
2023/10/30 06:05:49;;;;;;;20.80;11.70;;;;;;;16.09;100.00;101466.60;106534;1250;62546;-76
2023/10/30 06:08:22;;;;;;;24.30;13.40;;;;;;;16.01;100.00;101467.52;106363;1250;71420;-76
2023/10/30 06:10:50;;;;;;;25.80;14.70;;;;;;;15.66;100.00;101469.02;106105;1252;64004;-73
2023/10/30 06:13:19;;;;;;;18.50;11.90;;;;;;;15.12;100.00;101470.65;106118;1251;62120;-75
2023/10/30 06:15:47;;;;;;;22.30;11.90;;;;;;;14.58;100.00;101473.56;105938;1250;76176;-77
2023/10/30 06:18:14;;;;;;;20.30;11.70;;;;;;;14.14;100.00;101476.10;105952;1250;62410;-78
2023/10/30 06:20:44;;;;;;;18.50;11.30;;;;;;;13.80;100.00;101475.52;105903;1250;72678;-77
2023/10/30 06:23:12;;;;;;;16.00;10.30;;;;;;;13.55;100.00;101475.59;105903;1255;60609;-73
2023/10/30 06:25:41;;;;;;;16.60;9.90;;;;;;;13.37;100.00;101478.40;105948;1256;60380;-76
2023/10/30 06:28:10;;;;;;;16.20;9.60;;;;;;;13.24;100.00;101479.83;106000;1256;73804;-76
2023/10/30 06:30:39;;;;;;;15.70;9.60;;;;;;;13.15;100.00;101478.41;105870;1251;62915;-76
2023/10/30 06:33:06;;;;;;;16.50;10.70;;;;;;;13.06;100.00;101474.19;105882;1252;73567;-77
2023/10/30 06:35:34;;;;;;;16.00;11.20;;;;;;;13.01;100.00;101478.33;105857;1255;61613;-76
2023/10/30 06:38:01;;;;;;;15.50;9.70;;;;;;;12.96;100.00;101480.15;105935;1256;60321;-76
2023/10/30 06:40:29;;;;;;;18.60;11.20;;;;;;;12.94;100.00;101484.34;105866;1256;73857;-74
2023/10/30 06:42:59;;;;;;;16.00;9.60;;;;;;;12.92;100.00;101484.98;105998;1250;63090;-79
2023/10/30 06:45:32;;;;;;;13.70;10.00;;;;;;;12.90;100.00;101491.05;105790;1256;71817;-78
2023/10/30 06:48:00;;;;;;;16.70;9.70;;;;;;;12.89;100.00;101494.11;105841;1256;61605;-76
2023/10/30 06:50:28;;;;;;;19.70;10.10;;;;;;;12.89;100.00;101489.91;105842;1256;60515;-76
2023/10/30 06:52:57;;;;;;;11.80;8.70;;;;;;;12.90;100.00;101490.00;105881;1256;71888;-75
2023/10/30 06:55:25;;;;;;;12.90;8.80;;;;;;;12.91;100.00;101489.09;106051;1250;62277;-76
2023/10/30 06:57:52;;;;;;;16.30;11.50;;;;;;;12.92;100.00;101492.19;105905;1256;70732;-77
2023/10/30 07:00:20;;;;;;;15.20;8.60;;;;;;;12.92;100.00;101492.83;105876;1252;62363;-76
2023/10/30 07:02:48;;;;;;;13.60;8.60;;;;;;;12.94;100.00;101487.31;105807;1255;60435;-77
2023/10/30 07:05:15;;;;;;;15.30;8.90;;;;;;;12.95;100.00;101486.38;105894;1255;73366;-75
2023/10/30 07:07:43;;;;;;;16.30;8.70;;;;;;;12.95;100.00;101487.56;105906;1250;61919;-73
2023/10/30 07:10:10;;;;;;;13.20;8.70;;;;;;;12.97;100.00;101491.54;105973;1255;73261;-75
2023/10/30 07:12:38;;;;;;;11.60;7.70;;;;;;;12.98;100.00;101489.55;105855;1254;61185;-75
2023/10/30 07:15:06;;;;;;;11.50;8.30;;;;;;;12.98;100.00;101485.85;105851;1250;62254;-74
2023/10/30 07:17:34;;;;;;;14.70;7.70;;;;;;;12.99;100.00;101488.61;105944;1256;74206;-77
2023/10/30 07:20:03;;;;;;;13.80;7.90;;;;;;;12.98;100.00;101486.37;105821;1250;62890;-78
2023/10/30 07:22:30;;;;;;;13.30;8.10;;;;;;;12.99;100.00;101488.95;105914;1250;72920;-73
2023/10/30 07:24:59;;;;;;;14.80;7.50;;;;;;;13.00;100.00;101487.30;105850;1255;60619;-78
2023/10/30 07:27:26;;;;;;;14.10;7.20;;;;;;;13.02;100.00;101488.95;105996;1256;60414;-75
2023/10/30 07:29:55;;;;;;;14.20;7.40;;;;;;;13.05;100.00;101489.83;105846;1250;73814;-76
2023/10/30 07:32:23;;;;;;;9.50;5.80;;;;;;;13.11;100.00;101485.67;106004;1251;62524;-76
2023/10/30 07:34:50;;;;;;;11.80;6.20;;;;;;;13.17;100.00;101486.38;105866;1250;72480;-74
2023/10/30 07:37:18;;;;;;;8.30;6.60;;;;;;;13.23;100.00;101479.32;106036;1250;61922;-78
2023/10/30 07:39:46;;;;;;;9.60;6.50;;;;;;;13.30;100.00;101478.80;105903;1251;60352;-78
2023/10/30 07:42:16;;;;;;;8.30;5.50;;;;;;;13.35;100.00;101477.45;105766;1250;72599;-76
2023/10/30 07:44:44;;;;;;;11.80;6.60;;;;;;;13.42;100.00;101474.09;106153;1251;62976;-73
2023/10/30 07:47:12;;;;;;;11.90;7.40;;;;;;;13.47;100.00;101472.73;106874;1250;72945;-76
2023/10/30 07:49:41;;;;;;;11.20;6.50;;;;;;;13.54;100.00;101474.77;106716;1250;60552;-71
2023/10/30 07:52:08;;;;;;;11.60;4.90;;;;;;;13.62;100.00;101472.20;106296;1254;60377;-76
2023/10/30 07:54:36;;;;;;;7.50;5.40;;;;;;;13.71;100.00;101468.31;105857;1256;72895;-77
2023/10/30 07:57:05;;;;;;;8.80;4.90;;;;;;;13.81;100.00;101465.26;105892;1250;62292;-78
2023/10/30 07:59:35;;;;;;;11.50;5.50;;;;;;;13.91;100.00;101462.01;105745;1251;72373;-77
2023/10/30 08:02:04;;;;;;;8.30;5.60;;;;;;;14.01;100.00;101457.55;105808;1251;60792;-76
2023/10/30 08:04:32;;;;;;;8.60;5.00;;;;;;;14.11;100.00;101458.86;105757;1250;60464;-75
2023/10/30 08:06:59;;;;;;;9.40;5.00;;;;;;;14.21;100.00;101460.52;105851;1251;73889;-77
2023/10/30 08:09:27;;;;;;;9.20;5.60;;;;;;;14.31;100.00;101458.72;106029;1256;64050;-75
2023/10/30 08:11:55;;;;;;;7.50;4.70;;;;;;;14.40;100.00;101453.40;105836;1251;72945;-78
2023/10/30 08:14:23;;;;;;;7.60;4.90;;;;;;;14.50;100.00;101450.11;105897;1256;61036;-74
2023/10/30 08:16:50;;;;;;;8.40;4.40;;;;;;;14.60;100.00;101446.69;105966;1256;60438;-76
2023/10/30 08:19:18;;;;;;;6.10;4.10;;;;;;;14.70;100.00;101448.52;105916;1254;73851;-77
2023/10/30 08:21:45;;;;;;;6.20;5.00;;;;;;;14.82;100.00;101450.58;105923;1254;63548;-75
2023/10/30 08:24:13;;;;;;;13.10;9.50;;;;;;;14.94;100.00;101449.11;105938;1250;72571;-74
2023/10/30 08:26:40;;;;;;;7.90;5.30;;;;;;;15.06;100.00;101450.11;105989;1255;61634;-74
2023/10/30 08:29:09;;;;;;;12.10;5.70;;;;;;;15.19;100.00;101442.32;105963;1256;60918;-75
2023/10/30 08:31:38;;;;;;;8.60;5.60;;;;;;;15.43;100.00;101448.02;105817;1250;73932;-78
2023/10/30 08:34:06;;;;;;;6.30;4.60;;;;;;;15.89;100.00;101446.64;105816;1250;65638;-76
2023/10/30 08:36:34;;;;;;;8.20;4.30;;;;;;;16.61;100.00;101449.85;105694;1253;71480;-76
2023/10/30 08:39:03;;;;;;;5.30;4.80;;;;;;;17.47;100.00;101449.70;105725;1256;61354;-74
2023/10/30 08:41:31;;;;;;;6.80;4.30;;;;;;;18.31;99.84;101443.57;105795;1256;60415;-75
2023/10/30 08:43:59;;;;;;;10.40;5.60;;;;;;;19.03;89.53;101443.60;105872;1250;73970;-76
2023/10/30 08:46:28;;;;;;;9.60;6.30;;;;;;;19.58;82.26;101439.41;105912;1256;63020;-81
2023/10/30 09:02:03;;;;;;;6.00;4.00;;;;;;;21.44;64.52;101427.94;102544;1290;616114;-76
2023/10/30 09:04:30;;;;;;;9.70;4.90;;;;;;;22.04;59.23;101426.86;104894;1268;60329;-75
2023/10/30 09:06:58;;;;;;;17.10;5.80;;;;;;;22.47;55.42;101420.13;104817;1266;60375;-76
2023/10/30 09:09:25;;;;;;;5.70;4.10;;;;;;;22.87;54.13;101417.00;104843;1266;72024;-76
2023/10/30 09:11:54;;;;;;;9.00;3.80;;;;;;;23.33;51.27;101411.69;104884;1266;62964;-76
2023/10/30 09:14:21;;;;;;;4.80;3.40;;;;;;;23.68;49.17;101411.15;104661;1270;239406;-74
2023/10/30 09:16:50;;;;;;;6.10;3.60;;;;;;;24.05;48.47;101411.83;104988;1264;60451;-76
2023/10/30 09:19:17;;;;;;;8.00;3.80;;;;;;;24.52;46.56;101401.14;105138;1268;60331;-74
2023/10/30 09:21:44;;;;;;;6.80;3.90;;;;;;;24.91;44.48;101402.85;105038;1262;72415;-75
2023/10/30 09:24:11;;;;;;;8.10;5.00;;;;;;;25.24;43.21;101397.48;105043;1267;64072;-75
2023/10/30 09:26:38;;;;;;;5.50;3.50;;;;;;;25.48;41.93;101395.18;105982;1255;72744;-75
2023/10/30 09:29:07;;;;;;;8.10;3.80;;;;;;;25.63;40.83;101396.20;105854;1251;60955;-73
2023/10/30 09:31:34;;;;;;;5.00;3.80;;;;;;;25.66;39.97;101401.25;105994;1256;61842;-77
2023/10/30 09:34:05;;;;;;;10.80;5.30;;;;;;;25.67;40.00;101391.08;105851;1253;73071;-75
2023/10/30 09:36:33;;;;;;;5.40;3.90;;;;;;;25.82;39.87;101393.01;105789;1255;64290;-75
2023/10/30 09:39:00;;;;;;;10.60;7.30;;;;;;;26.03;39.87;101395.14;105816;1253;72535;-75
2023/10/30 09:41:27;;;;;;;8.70;5.10;;;;;;;26.29;39.58;101396.42;105912;1256;61381;-75
2023/10/30 09:43:54;;;;;;;5.50;4.20;;;;;;;26.57;38.64;101392.05;105949;1256;61596;-74
2023/10/30 09:46:23;;;;;;;6.60;5.50;;;;;;;26.71;37.92;101389.50;105943;1253;74262;-76
2023/10/30 09:48:50;;;;;;;7.80;4.90;;;;;;;26.77;37.28;101390.90;105899;1253;62761;-77
2023/10/30 09:51:21;;;;;;;17.60;10.80;;;;;;;26.74;37.32;101385.98;105873;1255;72693;-76
2023/10/30 09:53:48;;;;;;;9.40;6.20;;;;;;;26.82;37.09;101385.50;105802;1253;60269;-76
2023/10/30 09:56:16;;;;;;;6.20;4.80;;;;;;;26.89;36.43;101386.63;105802;1253;60337;-76
2023/10/30 09:58:44;;;;;;;5.50;4.50;;;;;;;26.97;36.45;101384.99;105907;1251;72880;-77
2023/10/30 10:01:11;;;;;;;6.10;3.90;;;;;;;27.12;35.70;101389.88;105860;1256;64278;-78
2023/10/30 10:03:38;;;;;;;8.10;6.40;;;;;;;27.14;35.00;101387.30;105808;1253;71002;-74
2023/10/30 10:06:05;;;;;;;5.50;4.90;;;;;;;27.03;35.26;101390.63;105829;1256;61083;-79
2023/10/30 10:08:33;;;;;;;6.90;3.60;;;;;;;26.99;35.43;101387.86;105852;1251;60220;-78
2023/10/30 10:11:01;;;;;;;5.90;4.20;;;;;;;27.12;35.82;101379.65;105916;1253;72788;-75
2023/10/30 10:13:29;;;;;;;9.60;5.10;;;;;;;27.38;35.91;101383.05;105899;1255;64006;-75
2023/10/30 10:15:56;;;;;;;6.50;4.10;;;;;;;27.57;34.83;101377.23;105839;1253;72704;-75
2023/10/30 10:18:27;;;;;;;6.20;2.30;;;;;;;27.59;34.22;101385.76;105830;1251;60456;-75
2023/10/30 10:21:01;;;;;;;4.30;2.50;;;;;;;27.45;34.03;101383.85;105933;1251;61681;-77
2023/10/30 10:23:31;;;;;;;6.70;3.10;;;;;;;27.35;34.06;101379.81;105852;1252;73267;-78
2023/10/30 10:26:00;;;;;;;8.60;3.60;;;;;;;27.37;34.11;101375.75;105818;1256;64995;-75
2023/10/30 10:28:27;;;;;;;7.60;2.50;;;;;;;27.48;33.96;101374.63;105843;1256;72753;-75
2023/10/30 10:30:54;;;;;;;6.80;2.80;;;;;;;27.62;33.48;101373.20;105740;1255;60475;-76
2023/10/30 10:33:22;;;;;;;6.30;2.70;;;;;;;27.78;33.27;101369.77;106043;1254;60405;-74
2023/10/30 10:35:54;;;;;;;2.70;2.40;;;;;;;28.03;34.16;101367.29;106607;1251;74365;-75
2023/10/30 10:38:22;;;;;;;3.00;2.60;;;;;;;28.29;33.82;101364.23;106390;1251;62817;-73
2023/10/30 10:40:52;;;;;;;4.50;2.60;;;;;;;28.31;32.75;101363.27;105899;1255;73651;-73
2023/10/30 10:43:20;;;;;;;4.90;2.60;;;;;;;27.98;32.24;101357.81;105897;1255;60124;-74
2023/10/30 10:48:26;;;;;;;3.50;2.20;;;;;;;26.96;33.41;101355.21;102753;1295;600350;-74
2023/10/30 10:50:57;;;;;;;4.30;2.10;;;;;;;26.39;33.60;101355.69;105010;1270;59347;-76
2023/10/30 10:53:27;;;;;;;6.70;2.70;;;;;;;25.79;34.51;101355.38;104815;1267;60261;-76
2023/10/30 10:55:58;;;;;;;4.70;2.10;;;;;;;25.35;35.19;101353.35;104813;1272;73018;-77
2023/10/30 10:58:25;;;;;;;4.10;2.60;;;;;;;24.93;36.25;101351.17;104754;1272;63626;-76
2023/10/30 11:00:54;;;;;;;6.10;2.80;;;;;;;24.61;37.10;101344.98;104677;1272;215547;-76
2023/10/30 11:03:21;;;;;;;5.40;2.60;;;;;;;24.37;37.31;101340.56;105717;1257;60441;-76
2023/10/30 11:05:50;;;;;;;2.80;2.20;;;;;;;23.99;37.69;101341.40;105838;1266;60636;-77
2023/10/30 11:08:28;;;;;;;3.60;2.50;;;;;;;23.56;38.51;101339.71;105716;1254;72377;-76
2023/10/30 11:10:56;;;;;;;3.60;2.30;;;;;;;23.22;39.42;101344.13;105769;1258;65839;-73
2023/10/30 11:13:39;;;;;;;6.80;3.20;;;;;;;22.90;40.03;101333.98;105712;1255;72728;-78
2023/10/30 11:16:17;;;;;;;3.40;2.30;;;;;;;22.61;39.99;101335.32;105641;1259;59654;-74
2023/10/30 11:18:45;;;;;;;5.50;3.20;;;;;;;22.39;40.56;101331.55;105846;1256;60837;-74
2023/10/30 11:21:16;;;;;;;7.20;3.00;;;;;;;22.24;41.29;101329.17;105722;1260;73707;-75
2023/10/30 11:23:56;;;;;;;3.50;2.20;;;;;;;22.06;41.72;101329.29;105644;1257;65846;-75